createdAt,value
2023-02-19T00:01:42.690Z,2.53
2023-02-19T00:12:04.154Z,1.95
2023-02-19T00:22:25.148Z,2.42
2023-02-19T00:32:51.561Z,2.47
2023-02-19T00:43:12.563Z,1.80
2023-02-19T00:53:33.849Z,2.10
2023-02-19T01:03:55.364Z,3.20
2023-02-19T01:14:16.608Z,1.98
2023-02-19T01:24:37.998Z,3.05
2023-02-19T01:34:59.233Z,1.55
2023-02-19T01:45:25.965Z,3.00
2023-02-19T01:55:50.750Z,2.30
2023-02-19T02:06:34.718Z,2.60
2023-02-19T02:17:08.457Z,2.55
2023-02-19T02:27:44.410Z,3.20
2023-02-19T02:38:08.610Z,3.13
2023-02-19T02:48:34.910Z,2.97
2023-02-19T02:58:58.499Z,3.23
2023-02-19T03:09:30.423Z,5.72
2023-02-19T03:19:55.155Z,2.70
2023-02-19T03:30:24.643Z,2.88
2023-02-19T03:41:03.992Z,3.17
2023-02-19T03:51:50.887Z,3.05
2023-02-19T04:02:18.836Z,2.92
2023-02-19T04:12:43.989Z,3.78
2023-02-19T04:23:05.334Z,2.97
2023-02-19T04:33:26.257Z,2.72
2023-02-19T04:43:47.731Z,3.40
2023-02-19T04:54:09.109Z,3.25
2023-02-19T05:04:30.358Z,3.25
2023-02-19T05:14:51.822Z,2.58
2023-02-19T05:25:13.245Z,2.72
2023-02-19T05:35:34.622Z,2.22
2023-02-19T05:45:59.025Z,2.08
2023-02-19T05:56:26.305Z,2.20
2023-02-19T06:06:48.239Z,1.40
2023-02-19T06:17:09.637Z,1.60
2023-02-19T06:27:30.653Z,1.73
2023-02-19T06:37:51.992Z,2.00
2023-02-19T06:48:13.586Z,1.27
2023-02-19T06:58:35.122Z,1.15
2023-02-19T07:08:57.837Z,1.40
2023-02-19T07:19:19.101Z,1.42
2023-02-19T07:29:40.097Z,1.20
2023-02-19T07:40:01.751Z,1.52
2023-02-19T07:50:23.031Z,1.38
2023-02-19T08:00:44.468Z,1.50
2023-02-19T08:11:24.430Z,1.90
2023-02-19T08:21:46.094Z,1.40
2023-02-19T08:32:07.434Z,1.77
2023-02-19T08:42:29.494Z,1.63
2023-02-19T08:52:50.776Z,1.30
2023-02-19T09:03:12.003Z,1.60
2023-02-19T09:13:33.479Z,1.10
2023-02-19T09:23:54.635Z,1.20
2023-02-19T09:34:15.899Z,2.42
2023-02-19T09:44:40.208Z,1.55
2023-02-19T09:55:04.538Z,1.67
2023-02-19T10:05:26.694Z,1.60
2023-02-19T10:15:53.435Z,1.58
2023-02-19T10:26:15.700Z,1.35
2023-02-19T10:36:39.944Z,0.82
2023-02-19T10:47:02.300Z,1.50
2023-02-19T10:57:30.600Z,1.75
2023-02-19T11:07:56.295Z,1.77
2023-02-19T11:18:25.326Z,1.40
2023-02-19T11:29:13.235Z,1.40
2023-02-19T11:39:34.861Z,1.33
2023-02-19T11:50:19.920Z,1.75
2023-02-19T12:01:06.997Z,2.10
2023-02-19T12:11:46.532Z,1.23
2023-02-19T12:22:31.754Z,1.10
2023-02-19T12:32:59.008Z,1.73
2023-02-19T12:43:22.156Z,1.05
2023-02-19T12:53:54.665Z,1.50
2023-02-19T13:04:54.614Z,1.35
2023-02-19T13:15:41.746Z,2.00
2023-02-19T13:26:49.323Z,2.90
2023-02-19T13:37:11.781Z,1.13
2023-02-19T13:47:55.131Z,1.20
2023-02-19T13:58:34.303Z,1.20
2023-02-19T14:08:57.649Z,1.08
2023-02-19T14:19:41.948Z,1.95
2023-02-19T14:30:05.317Z,1.98
2023-02-19T14:40:46.538Z,2.75
2023-02-19T14:51:16.727Z,1.25
2023-02-19T15:01:38.642Z,1.00
2023-02-19T15:12:00.585Z,1.08
2023-02-19T15:22:24.655Z,1.02
2023-02-19T15:32:52.850Z,1.55
2023-02-19T15:43:44.723Z,2.05
2023-02-19T15:55:02.085Z,1.58
2023-02-19T16:05:27.959Z,1.45
2023-02-19T16:15:58.319Z,1.40
2023-02-19T16:26:19.661Z,0.98
2023-02-19T16:36:45.660Z,1.55
2023-02-19T16:47:26.850Z,1.90
2023-02-19T16:57:48.097Z,1.60
2023-02-19T17:08:34.409Z,1.48
2023-02-19T17:18:56.178Z,1.55
2023-02-19T17:29:20.130Z,1.52
2023-02-19T17:39:41.307Z,2.50
2023-02-19T17:50:02.351Z,2.30
2023-02-19T18:00:26.842Z,3.28
2023-02-19T18:10:48.177Z,2.70
2023-02-19T18:21:10.624Z,4.53
2023-02-19T18:31:33.207Z,2.65
2023-02-19T18:41:54.531Z,3.60
2023-02-19T18:52:20.388Z,3.58
2023-02-19T19:02:49.129Z,4.20
2023-02-19T19:13:11.598Z,3.05
2023-02-19T19:23:32.774Z,4.05
2023-02-19T19:33:54.170Z,2.95
2023-02-19T19:44:15.157Z,2.58
2023-02-19T19:54:37.709Z,3.15
2023-02-19T20:04:58.940Z,3.25
2023-02-19T20:15:24.146Z,2.83
2023-02-19T20:25:45.492Z,2.88
2023-02-19T20:36:07.770Z,2.65
2023-02-19T20:46:29.971Z,2.92
2023-02-19T20:56:56.271Z,2.60
2023-02-19T21:07:17.571Z,2.90
2023-02-19T21:17:38.845Z,2.65
2023-02-19T21:28:00.058Z,3.22
2023-02-19T21:38:21.533Z,3.05
2023-02-19T21:48:42.656Z,4.15
2023-02-19T21:59:04.084Z,3.63
2023-02-19T22:09:25.288Z,3.45
2023-02-19T22:19:47.443Z,3.70
2023-02-19T22:30:09.588Z,3.72
2023-02-19T22:40:30.637Z,2.88
2023-02-19T22:50:52.932Z,3.70
2023-02-19T23:01:15.071Z,3.00
2023-02-19T23:11:39.404Z,2.58
2023-02-19T23:22:01.181Z,3.15
2023-02-19T23:32:24.131Z,2.85
2023-02-19T23:42:45.413Z,2.58
2023-02-19T23:53:06.534Z,3.88
